createdAt,value
2017-04-11T00:00:53.451Z,65.53
2017-04-11T00:01:53.983Z,65.78
2017-04-11T00:02:54.517Z,65.53
2017-04-11T00:03:55.045Z,65.86
2017-04-11T00:04:55.575Z,65.91
2017-04-11T00:05:56.104Z,65.91
2017-04-11T00:06:56.633Z,65.94
2017-04-11T00:07:57.163Z,66.12
2017-04-11T00:08:57.696Z,66.22
2017-04-11T00:09:58.225Z,65.65
2017-04-11T00:10:58.908Z,65.78
2017-04-11T00:11:59.288Z,65.62
2017-04-11T00:12:59.820Z,65.89
2017-04-11T00:14:00.356Z,66.14
2017-04-11T00:15:00.884Z,66.43
2017-04-11T00:16:01.421Z,66.25
2017-04-11T00:17:03.752Z,66.35
2017-04-11T00:18:02.492Z,66.50
2017-04-11T00:19:03.025Z,66.14
2017-04-11T00:20:03.575Z,66.43
2017-04-11T00:21:04.105Z,66.48
2017-04-11T00:22:04.639Z,66.66
2017-04-11T00:23:05.155Z,66.66
2017-04-11T00:24:05.686Z,66.66
2017-04-11T00:25:06.219Z,67.16
2017-04-11T00:26:06.753Z,66.56
2017-04-11T00:27:07.282Z,67.13
2017-04-11T00:28:07.811Z,67.10
2017-04-11T00:29:08.342Z,67.00
2017-04-11T00:30:08.874Z,67.00
2017-04-11T00:31:09.400Z,66.40
2017-04-11T00:32:09.935Z,66.53
2017-04-11T00:33:10.462Z,66.58
2017-04-11T00:34:10.992Z,66.84
2017-04-11T00:35:11.526Z,66.79
2017-04-11T00:36:12.056Z,67.18
2017-04-11T00:37:12.584Z,67.36
2017-04-11T00:38:13.114Z,67.31
2017-04-11T00:39:13.642Z,67.39
2017-04-11T00:40:14.174Z,67.64
2017-04-11T00:41:14.705Z,67.67
2017-04-11T00:42:15.239Z,67.39
2017-04-11T00:43:15.773Z,67.25
2017-04-11T00:44:16.306Z,67.36
2017-04-11T00:45:16.829Z,67.85
2017-04-11T00:46:17.362Z,67.88
2017-04-11T00:47:17.891Z,67.72
2017-04-11T00:48:18.422Z,68.01
2017-04-11T00:49:19.108Z,67.96
2017-04-11T00:50:19.480Z,68.06
2017-04-11T00:51:20.161Z,68.04
2017-04-11T00:52:20.541Z,67.83
2017-04-11T00:53:21.071Z,67.77
2017-04-11T00:54:21.748Z,68.32
2017-04-11T00:55:22.132Z,68.35
2017-04-11T00:56:22.666Z,68.53
2017-04-11T00:57:23.200Z,68.50
2017-04-11T00:58:23.737Z,68.58
2017-04-11T00:59:24.271Z,68.71
2017-04-11T01:00:24.808Z,68.76
2017-04-11T01:01:25.492Z,68.97
2017-04-11T01:02:25.868Z,69.28
2017-04-11T01:03:26.553Z,69.41
2017-04-11T01:04:26.934Z,69.62
2017-04-11T01:05:27.469Z,70.04
2017-04-11T01:06:29.196Z,70.17
2017-04-11T01:07:28.677Z,70.21
2017-04-11T01:08:29.060Z,70.45
2017-04-11T01:09:29.589Z,70.45
2017-04-11T01:10:30.124Z,70.66
2017-04-11T01:11:30.649Z,70.82
2017-04-11T01:12:31.184Z,71.03
2017-04-11T01:13:31.712Z,71.05
2017-04-11T01:14:32.245Z,71.13
2017-04-11T01:15:32.776Z,71.07
2017-04-11T01:16:33.311Z,71.03
2017-04-11T01:17:34.090Z,71.34
2017-04-11T01:18:34.371Z,71.44
2017-04-11T01:19:35.053Z,71.49
2017-04-11T01:20:35.437Z,71.52
2017-04-11T01:21:35.965Z,71.47
2017-04-11T01:22:36.493Z,71.39
2017-04-11T01:23:37.024Z,71.62
2017-04-11T01:24:37.581Z,71.91
2017-04-11T01:25:38.082Z,72.09
2017-04-11T01:26:38.617Z,72.25
2017-04-11T01:27:39.145Z,72.41
2017-04-11T01:28:39.677Z,72.88
2017-04-11T01:29:40.208Z,73.27
2017-04-11T01:30:40.743Z,73.42
2017-04-11T01:31:41.274Z,73.63
2017-04-11T01:32:41.803Z,73.85
2017-04-11T01:33:42.334Z,73.97
2017-04-11T01:34:42.865Z,74.21
2017-04-11T01:35:43.397Z,74.50
2017-04-11T01:36:43.929Z,74.68
2017-04-11T01:37:44.464Z,74.79
2017-04-11T01:38:45.002Z,74.94
2017-04-11T01:39:45.683Z,75.23
2017-04-11T01:40:46.070Z,75.49
2017-04-11T01:41:46.598Z,75.76
2017-04-11T01:42:47.132Z,75.76
2017-04-11T01:43:47.665Z,75.78
2017-04-11T01:44:48.195Z,75.76
2017-04-11T01:45:48.724Z,75.86
2017-04-11T01:46:49.258Z,76.04
2017-04-11T01:47:49.825Z,76.07
2017-04-11T01:48:50.322Z,76.20
2017-04-11T01:49:50.850Z,76.28
2017-04-11T01:50:51.385Z,76.44
2017-04-11T01:51:51.915Z,76.70
2017-04-11T01:52:52.596Z,76.83
2017-04-11T01:53:52.975Z,76.91
2017-04-11T01:54:53.512Z,76.94
2017-04-11T01:55:54.038Z,76.94
2017-04-11T01:56:54.574Z,77.02
2017-04-11T01:57:55.101Z,76.97
2017-04-11T01:58:55.631Z,77.02
2017-04-11T01:59:56.164Z,76.94
2017-04-11T02:00:56.707Z,76.97
2017-04-11T02:01:57.224Z,76.94
2017-04-11T02:02:57.758Z,76.91
2017-04-11T02:03:58.299Z,77.07
2017-04-11T02:04:58.827Z,77.23
2017-04-11T02:05:59.353Z,77.17
2017-04-11T02:06:59.888Z,76.83
2017-04-11T02:08:00.414Z,76.91
2017-04-11T02:09:00.952Z,77.02
2017-04-11T02:10:01.482Z,77.31
2017-04-11T02:11:02.013Z,77.09
2017-04-11T02:12:02.698Z,76.83
2017-04-11T02:13:03.229Z,76.65
2017-04-11T02:14:03.608Z,76.83
2017-04-11T02:15:04.140Z,76.91
2017-04-11T02:16:04.669Z,76.91
2017-04-11T02:17:05.204Z,76.81
2017-04-11T02:18:05.735Z,76.89
2017-04-11T02:19:06.265Z,76.83
2017-04-11T02:20:06.798Z,76.89
2017-04-11T02:21:07.339Z,76.99
2017-04-11T02:22:07.870Z,77.07
2017-04-11T02:23:08.404Z,77.23
2017-04-11T02:24:09.113Z,77.36
2017-04-11T02:25:09.472Z,77.41
2017-04-11T02:26:10.008Z,77.31
2017-04-11T02:27:10.532Z,77.33
2017-04-11T02:28:11.063Z,77.36
2017-04-11T02:29:11.595Z,77.41
2017-04-11T02:30:12.136Z,77.33
2017-04-11T02:31:12.660Z,77.59
2017-04-11T02:32:13.195Z,77.67
2017-04-11T02:33:13.724Z,77.89
2017-04-11T02:34:14.246Z,77.94
2017-04-11T02:35:14.777Z,78.05
2017-04-11T02:36:15.312Z,78.23
2017-04-11T02:37:15.991Z,78.15
2017-04-11T02:38:16.524Z,78.31
2017-04-11T02:39:16.906Z,78.20
2017-04-11T02:40:17.627Z,78.17
2017-04-11T02:41:17.970Z,78.23
2017-04-11T02:42:18.498Z,78.39
2017-04-11T02:43:19.036Z,78.44
2017-04-11T02:44:19.562Z,78.54
2017-04-11T02:45:20.096Z,78.65
2017-04-11T02:46:20.648Z,78.73
2017-04-11T02:47:21.155Z,78.73
2017-04-11T02:48:21.684Z,78.81
2017-04-11T02:49:22.222Z,78.97
2017-04-11T02:50:22.746Z,79.02
2017-04-11T02:51:23.280Z,79.07
2017-04-11T02:52:23.813Z,79.07
2017-04-11T02:53:24.345Z,79.13
2017-04-11T02:54:25.024Z,79.13
2017-04-11T02:55:25.401Z,79.15
2017-04-11T02:56:25.931Z,79.13
2017-04-11T02:57:26.468Z,79.13
2017-04-11T02:58:26.999Z,79.23
2017-04-11T02:59:27.531Z,79.39
2017-04-11T03:00:28.098Z,79.68
2017-04-11T03:01:28.602Z,79.75
2017-04-11T03:02:29.136Z,79.89
2017-04-11T03:03:29.670Z,79.75
2017-04-11T03:04:30.350Z,80.10
2017-04-11T03:05:30.736Z,80.05
2017-04-11T03:06:31.264Z,80.05
2017-04-11T03:07:31.793Z,80.13
2017-04-11T03:08:32.475Z,80.15
2017-04-11T03:09:33.003Z,80.36
2017-04-11T03:10:33.391Z,80.36
2017-04-11T03:11:33.916Z,80.15
2017-04-11T03:12:34.448Z,80.21
2017-04-11T03:13:34.976Z,80.29
2017-04-11T03:14:35.509Z,80.18
2017-04-11T03:15:36.039Z,80.39
2017-04-11T03:16:36.567Z,80.41
2017-04-11T03:17:37.251Z,80.60
2017-04-11T03:18:37.627Z,80.65
2017-04-11T03:19:38.160Z,80.68
2017-04-11T03:20:38.842Z,80.68
2017-04-11T03:21:39.225Z,80.94
2017-04-11T03:22:39.758Z,80.94
2017-04-11T03:23:40.289Z,81.10
2017-04-11T03:24:40.820Z,81.34
2017-04-11T03:25:41.350Z,81.42
2017-04-11T03:26:41.886Z,81.42
2017-04-11T03:27:42.417Z,81.52
2017-04-11T03:28:42.945Z,81.60
2017-04-11T03:29:43.480Z,81.58
2017-04-11T03:30:44.009Z,81.37
2017-04-11T03:31:44.534Z,81.29
2017-04-11T03:32:45.106Z,81.18
2017-04-11T03:33:45.599Z,81.32
2017-04-11T03:34:46.128Z,81.00
2017-04-11T03:35:46.660Z,81.21
2017-04-11T03:36:47.188Z,80.71
2017-04-11T03:37:47.727Z,80.79
2017-04-11T03:38:48.280Z,80.97
2017-04-11T03:39:48.784Z,81.02
2017-04-11T03:40:49.467Z,81.66
2017-04-11T03:41:49.858Z,81.48
2017-04-11T03:42:50.545Z,81.84
2017-04-11T03:43:50.936Z,82.08
2017-04-11T03:44:51.462Z,82.03
2017-04-11T03:45:51.996Z,82.03
2017-04-11T03:46:52.527Z,82.08
2017-04-11T03:47:53.062Z,82.16
2017-04-11T03:48:54.041Z,82.14
2017-04-11T03:49:54.125Z,82.24
2017-04-11T03:50:54.655Z,82.37
2017-04-11T03:51:55.187Z,82.19
2017-04-11T03:52:55.718Z,81.98
2017-04-11T03:53:56.247Z,81.48
2017-04-11T03:54:56.779Z,81.52
2017-04-11T03:55:57.317Z,81.34
2017-04-11T03:56:57.878Z,81.87
2017-04-11T03:57:58.379Z,81.63
2017-04-11T03:58:58.907Z,81.76
2017-04-11T03:59:59.438Z,81.50
2017-04-11T04:00:59.975Z,81.18
2017-04-11T04:02:00.503Z,81.32
2017-04-11T04:03:01.036Z,81.42
2017-04-11T04:04:01.568Z,81.40
2017-04-11T04:05:02.247Z,81.71
2017-04-11T04:06:02.640Z,81.56
2017-04-11T04:07:03.162Z,81.82
2017-04-11T04:08:03.693Z,81.63
2017-04-11T04:09:04.253Z,81.98
2017-04-11T04:10:04.754Z,81.98
2017-04-11T04:11:05.288Z,82.24
2017-04-11T04:12:05.967Z,81.82
2017-04-11T04:13:06.350Z,81.82
2017-04-11T04:14:06.881Z,81.66
2017-04-11T04:15:07.406Z,81.58
2017-04-11T04:16:07.950Z,81.63
2017-04-11T04:17:08.475Z,81.79
2017-04-11T04:18:09.008Z,81.66
2017-04-11T04:19:09.536Z,82.06
2017-04-11T04:20:10.067Z,82.14
2017-04-11T04:21:10.599Z,82.27
2017-04-11T04:22:11.136Z,82.43
2017-04-11T04:23:11.818Z,82.35
2017-04-11T04:24:12.205Z,82.72
2017-04-11T04:25:12.742Z,82.75
2017-04-11T04:26:13.271Z,82.96
2017-04-11T04:27:13.800Z,82.77
2017-04-11T04:28:14.337Z,82.56
2017-04-11T04:29:14.865Z,82.59
2017-04-11T04:30:15.402Z,82.40
2017-04-11T04:31:15.932Z,82.35
2017-04-11T04:32:16.466Z,82.59
2017-04-11T04:33:17.150Z,82.85
2017-04-11T04:34:17.529Z,83.33
2017-04-11T04:35:18.060Z,83.38
2017-04-11T04:36:18.594Z,83.75
2017-04-11T04:37:19.120Z,84.05
2017-04-11T04:38:19.656Z,83.81
2017-04-11T04:39:20.188Z,83.94
2017-04-11T04:40:20.719Z,84.52
2017-04-11T04:41:21.399Z,85.11
2017-04-11T04:42:21.782Z,85.69
2017-04-11T04:43:22.313Z,85.64
2017-04-11T04:44:22.846Z,85.40
2017-04-11T04:45:23.525Z,85.56
2017-04-11T04:46:23.911Z,85.43
2017-04-11T04:47:24.441Z,85.50
2017-04-11T04:48:24.976Z,85.83
2017-04-11T04:49:25.502Z,85.80
2017-04-11T04:50:26.040Z,85.93
2017-04-11T04:51:26.718Z,86.33
2017-04-11T04:52:27.102Z,86.52
2017-04-11T04:53:27.634Z,86.60
2017-04-11T04:54:28.168Z,86.46
2017-04-11T04:55:28.690Z,86.17
2017-04-11T04:56:29.225Z,86.07
2017-04-11T04:57:29.759Z,86.22
2017-04-11T04:58:30.290Z,86.46
2017-04-11T04:59:30.838Z,86.25
2017-04-11T05:00:31.356Z,86.25
2017-04-11T05:01:31.884Z,86.30
2017-04-11T05:02:32.425Z,86.25
2017-04-11T05:03:32.978Z,86.12
2017-04-11T05:04:33.485Z,86.44
2017-04-11T05:05:34.021Z,86.44
2017-04-11T05:06:34.553Z,86.63
2017-04-11T05:07:35.083Z,86.73
2017-04-11T05:08:35.621Z,87.13
2017-04-11T05:09:36.162Z,87.26
2017-04-11T05:10:36.685Z,86.94
2017-04-11T05:11:37.215Z,86.84
2017-04-11T05:12:37.743Z,86.89
2017-04-11T05:13:38.274Z,87.40
2017-04-11T05:14:38.807Z,87.43
2017-04-11T05:15:39.340Z,87.64
2017-04-11T05:16:39.868Z,87.88
2017-04-11T05:17:40.398Z,88.52
2017-04-11T05:18:40.930Z,88.52
2017-04-11T05:19:41.610Z,88.62
2017-04-11T05:20:42.005Z,88.50
2017-04-11T05:21:42.523Z,88.01
2017-04-11T05:22:43.060Z,87.53
2017-04-11T05:23:43.636Z,87.13
2017-04-11T05:24:44.117Z,86.71
2017-04-11T05:25:44.650Z,86.60
2017-04-11T05:26:45.180Z,86.46
2017-04-11T05:27:45.713Z,86.22
2017-04-11T05:28:46.246Z,86.25
2017-04-11T05:29:47.109Z,86.01
2017-04-11T05:30:47.308Z,85.96
2017-04-11T05:31:47.837Z,85.77
2017-04-11T05:32:48.369Z,85.61
2017-04-11T05:33:48.907Z,85.27
2017-04-11T05:34:49.436Z,85.00
2017-04-11T05:35:49.964Z,84.74
2017-04-11T05:36:50.492Z,84.84
2017-04-11T05:37:51.025Z,84.68
2017-04-11T05:38:51.561Z,84.58
2017-04-11T05:39:52.087Z,84.52
2017-04-11T05:40:52.630Z,84.71
2017-04-11T05:41:53.157Z,84.44
2017-04-11T05:42:53.690Z,84.23
2017-04-11T05:43:54.230Z,84.26
2017-04-11T05:44:54.757Z,84.34
2017-04-11T05:45:55.300Z,84.28
2017-04-11T05:46:55.834Z,84.36
2017-04-11T05:47:56.367Z,84.42
2017-04-11T05:48:56.901Z,84.60
2017-04-11T05:49:57.428Z,84.39
2017-04-11T05:50:57.966Z,84.60
2017-04-11T05:51:58.490Z,84.81
2017-04-11T05:52:59.018Z,85.00
2017-04-11T05:53:59.567Z,84.92
2017-04-11T05:55:00.082Z,84.74
2017-04-11T05:56:00.608Z,84.71
2017-04-11T05:57:01.142Z,84.52
2017-04-11T05:58:01.675Z,84.42
2017-04-11T05:59:02.205Z,84.17
2017-04-11T06:00:02.734Z,84.15
2017-04-11T06:01:03.412Z,83.94
2017-04-11T06:02:03.830Z,83.99
2017-04-11T06:03:04.335Z,83.65
2017-04-11T06:04:04.861Z,83.49
2017-04-11T06:05:05.394Z,83.54
2017-04-11T06:06:05.923Z,83.40
2017-04-11T06:07:06.461Z,83.36
2017-04-11T06:08:06.989Z,83.30
2017-04-11T06:09:07.525Z,83.01
2017-04-11T06:10:08.059Z,82.80
2017-04-11T06:11:08.582Z,82.67
2017-04-11T06:12:09.111Z,82.51
2017-04-11T06:13:09.642Z,82.21
2017-04-11T06:14:10.176Z,81.82
2017-04-11T06:16:11.246Z,81.79
2017-04-11T06:17:11.770Z,81.60
2017-04-11T06:18:12.297Z,81.42
2017-04-11T06:19:12.831Z,81.05
2017-04-11T06:20:13.507Z,81.08
2017-04-11T06:21:13.892Z,81.00
2017-04-11T06:22:14.445Z,80.36
2017-04-11T06:23:14.957Z,80.15
2017-04-11T06:24:15.491Z,80.29
2017-04-11T06:25:16.028Z,80.47
2017-04-11T06:26:16.713Z,80.15
2017-04-11T06:27:17.100Z,80.23
2017-04-11T06:28:17.633Z,79.89
2017-04-11T06:29:18.171Z,79.05
2017-04-11T06:30:18.704Z,79.28
2017-04-11T06:32:19.768Z,79.10
2017-04-11T06:33:20.303Z,78.89
2017-04-11T06:34:20.830Z,78.59
2017-04-11T06:35:21.521Z,77.91
2017-04-11T06:36:21.900Z,77.44
2017-04-11T06:37:22.427Z,77.25
2017-04-11T06:38:23.107Z,77.51
2017-04-11T06:39:23.494Z,76.86
2017-04-11T06:40:24.023Z,76.49
2017-04-11T06:41:24.699Z,74.97
2017-04-11T06:42:25.082Z,74.55
2017-04-11T06:44:26.146Z,74.18
2017-04-11T06:45:26.679Z,73.87
2017-04-11T06:46:27.209Z,73.27
2017-04-11T06:47:27.741Z,72.69
2017-04-11T06:48:28.275Z,72.75
2017-04-11T06:50:29.337Z,72.25
2017-04-11T06:51:29.867Z,71.89
2017-04-11T06:52:30.398Z,70.84
2017-04-11T06:53:30.931Z,71.62
2017-04-11T06:54:31.459Z,71.34
2017-04-11T06:55:31.991Z,71.73
2017-04-11T06:56:32.526Z,70.76
2017-04-11T06:57:33.198Z,71.34
2017-04-11T06:58:33.731Z,71.31
2017-04-11T06:59:34.112Z,71.07
2017-04-11T07:00:34.651Z,70.24
2017-04-11T07:01:35.178Z,70.09
2017-04-11T07:02:35.709Z,70.24
2017-04-11T07:03:36.245Z,70.45
2017-04-11T07:04:36.772Z,70.14
2017-04-11T07:05:37.324Z,68.74
2017-04-11T07:06:37.990Z,68.47
2017-04-11T07:07:38.375Z,68.01
2017-04-11T07:09:39.443Z,68.84
2017-04-11T07:10:39.975Z,67.91
2017-04-11T07:11:40.509Z,67.70
2017-04-11T07:12:41.049Z,66.61
2017-04-11T07:13:41.568Z,66.74
2017-04-11T07:14:42.250Z,67.08
2017-04-11T07:15:42.639Z,66.50
2017-04-11T07:16:43.318Z,65.96
2017-04-11T07:17:43.697Z,65.29
2017-04-11T07:18:44.376Z,65.03
2017-04-11T07:19:44.906Z,64.85
2017-04-11T07:20:45.289Z,64.18
2017-04-11T07:21:45.819Z,63.49
2017-04-11T07:22:46.498Z,63.46
2017-04-11T07:23:46.880Z,63.85
2017-04-11T07:24:47.557Z,63.77
2017-04-11T07:25:47.943Z,63.98
2017-04-11T07:26:48.623Z,63.62
2017-04-11T07:27:49.005Z,63.26
2017-04-11T07:28:49.535Z,63.38
2017-04-11T07:29:50.063Z,62.38
2017-04-11T07:30:50.632Z,62.04
2017-04-11T07:31:51.128Z,62.43
2017-04-11T07:32:51.659Z,61.35
2017-04-11T07:33:52.187Z,61.58
2017-04-11T07:34:52.716Z,62.14
2017-04-11T07:35:53.250Z,62.18
2017-04-11T07:36:53.932Z,62.35
2017-04-11T07:37:54.315Z,62.63
2017-04-11T07:38:54.849Z,62.63
2017-04-11T07:39:55.374Z,63.26
2017-04-11T07:40:55.943Z,62.87
2017-04-11T07:41:56.437Z,61.61
2017-04-11T07:42:56.965Z,59.63
2017-04-11T07:43:57.497Z,59.86
2017-04-11T07:44:58.028Z,59.20
2017-04-11T07:45:58.557Z,58.94
2017-04-11T07:46:59.088Z,58.04
2017-04-11T07:47:59.627Z,58.87
2017-04-11T07:49:00.161Z,57.36
2017-04-11T07:50:00.692Z,57.84
2017-04-11T07:51:01.376Z,55.47
2017-04-11T07:52:01.757Z,57.23
2017-04-11T07:53:02.285Z,55.78
2017-04-11T07:54:02.815Z,56.39
2017-04-11T07:55:03.377Z,56.67
2017-04-11T07:56:03.881Z,56.21
2017-04-11T07:57:04.415Z,55.63
2017-04-11T07:58:04.947Z,54.20
2017-04-11T07:59:05.473Z,54.23
2017-04-11T08:00:06.002Z,54.41
2017-04-11T08:01:06.537Z,54.66
2017-04-11T08:02:07.070Z,54.61
2017-04-11T08:03:07.599Z,55.22
2017-04-11T08:04:08.128Z,55.55
2017-04-11T08:05:08.657Z,55.60
2017-04-11T08:06:09.191Z,54.89
2017-04-11T08:07:09.722Z,55.17
2017-04-11T08:08:10.251Z,55.80
2017-04-11T08:09:10.781Z,55.88
2017-04-11T08:10:11.315Z,55.17
2017-04-11T08:11:11.845Z,55.83
2017-04-11T08:12:12.384Z,56.77
2017-04-11T08:13:12.907Z,56.08
2017-04-11T08:14:13.439Z,54.58
2017-04-11T08:15:13.969Z,54.41
2017-04-11T08:16:14.506Z,54.53
2017-04-11T08:17:15.038Z,54.12
2017-04-11T08:18:15.567Z,54.35
2017-04-11T08:19:16.095Z,53.72
2017-04-11T08:20:16.624Z,52.73
2017-04-11T08:21:17.157Z,52.20
2017-04-11T08:23:18.225Z,52.57
2017-04-11T08:24:18.754Z,51.95
2017-04-11T08:25:19.293Z,51.89
2017-04-11T08:26:19.817Z,53.11
2017-04-11T08:27:20.352Z,53.06
2017-04-11T08:28:20.885Z,53.54
2017-04-11T08:29:21.432Z,51.29
2017-04-11T08:30:21.959Z,51.66
2017-04-11T08:31:22.489Z,51.44
2017-04-11T08:32:23.027Z,50.18
2017-04-11T08:33:23.696Z,50.15
2017-04-11T08:34:24.076Z,51.29
2017-04-11T08:35:24.608Z,50.96
2017-04-11T08:36:25.137Z,50.22
2017-04-11T08:37:25.672Z,48.64
2017-04-11T08:38:26.204Z,50.15
2017-04-11T08:39:27.006Z,51.24
2017-04-11T08:40:27.269Z,52.12
2017-04-11T08:41:27.789Z,52.83
2017-04-11T08:42:28.347Z,53.16
2017-04-11T08:43:28.857Z,52.85
2017-04-11T08:44:29.387Z,51.46
2017-04-11T08:45:29.915Z,51.69
2017-04-11T08:46:30.447Z,49.19
2017-04-11T08:47:30.989Z,50.02
2017-04-11T08:48:31.520Z,49.80
2017-04-11T08:49:32.043Z,50.38
2017-04-11T08:50:32.575Z,51.39
2017-04-11T08:51:33.114Z,50.35
2017-04-11T08:52:33.638Z,50.68
2017-04-11T08:53:34.175Z,51.13
2017-04-11T08:54:34.700Z,48.97
2017-04-11T08:55:35.224Z,49.67
2017-04-11T08:56:35.757Z,50.60
2017-04-11T08:57:36.304Z,50.66
2017-04-11T08:58:36.820Z,50.00
2017-04-11T08:59:37.387Z,50.50
2017-04-11T09:00:37.884Z,50.13
2017-04-11T09:01:38.412Z,51.79
2017-04-11T09:02:38.945Z,51.13
2017-04-11T09:03:39.511Z,50.66
2017-04-11T09:04:40.011Z,50.30
2017-04-11T09:05:40.537Z,48.84
2017-04-11T09:06:41.221Z,49.60
2017-04-11T09:07:41.612Z,49.09
2017-04-11T09:08:42.142Z,50.40
2017-04-11T09:09:42.675Z,50.66
2017-04-11T09:10:43.355Z,50.55
2017-04-11T09:11:43.761Z,50.50
2017-04-11T09:12:44.280Z,49.57
2017-04-11T09:13:44.808Z,47.45
2017-04-11T09:14:45.342Z,48.21
2017-04-11T09:15:45.874Z,49.09
2017-04-11T09:16:46.399Z,49.27
2017-04-11T09:17:46.933Z,49.57
2017-04-11T09:18:47.465Z,50.80
2017-04-11T09:19:47.991Z,51.19
2017-04-11T09:20:48.669Z,49.67
2017-04-11T09:21:49.207Z,50.33
2017-04-11T09:22:49.580Z,49.85
2017-04-11T09:23:50.259Z,51.46
2017-04-11T09:24:50.638Z,52.40
2017-04-11T09:25:51.169Z,50.63
2017-04-11T09:26:51.697Z,50.05
2017-04-11T09:27:52.376Z,50.07
2017-04-11T09:28:52.756Z,49.90
2017-04-11T09:29:53.286Z,48.89
2017-04-11T09:30:53.815Z,50.20
2017-04-11T09:31:54.350Z,51.19
2017-04-11T09:32:54.876Z,50.96
2017-04-11T09:33:55.416Z,50.38
2017-04-11T09:34:55.946Z,51.54
2017-04-11T09:35:56.471Z,52.40
2017-04-11T09:36:57.002Z,52.25
2017-04-11T09:37:57.530Z,52.90
2017-04-11T09:38:58.205Z,51.33
2017-04-11T09:39:58.591Z,51.64
2017-04-11T09:40:59.124Z,50.60
2017-04-11T09:41:59.795Z,51.08
2017-04-11T09:43:00.176Z,51.39
2017-04-11T09:44:00.705Z,51.39
2017-04-11T09:45:01.237Z,51.08
2017-04-11T09:46:01.768Z,50.91
2017-04-11T09:47:02.306Z,51.59
2017-04-11T09:48:02.861Z,49.34
2017-04-11T09:49:03.367Z,49.60
2017-04-11T09:50:03.901Z,49.22
2017-04-11T09:51:04.434Z,48.28
2017-04-11T09:52:04.971Z,48.86
2017-04-11T09:53:05.505Z,47.83
2017-04-11T09:54:06.033Z,48.23
2017-04-11T09:55:06.566Z,47.53
2017-04-11T09:56:07.102Z,47.81
2017-04-11T09:57:07.633Z,49.06
2017-04-11T09:58:08.310Z,49.12
2017-04-11T09:59:08.745Z,47.81
2017-04-11T10:00:09.218Z,48.97
2017-04-11T10:01:09.752Z,47.48
2017-04-11T10:02:10.430Z,48.89
2017-04-11T10:03:10.815Z,48.34
2017-04-11T10:04:11.343Z,49.29
2017-04-11T10:05:11.875Z,50.13
2017-04-11T10:06:12.411Z,47.68
2017-04-11T10:07:12.937Z,46.78
2017-04-11T10:08:13.471Z,48.06
2017-04-11T10:09:14.002Z,49.29
2017-04-11T10:10:14.530Z,49.97
2017-04-11T10:11:15.064Z,48.08
2017-04-11T10:12:15.591Z,47.18
2017-04-11T10:13:16.127Z,49.32
2017-04-11T10:14:16.805Z,48.23
2017-04-11T10:15:17.189Z,47.18
2017-04-11T10:16:17.869Z,46.81
2017-04-11T10:17:18.249Z,46.15
2017-04-11T10:18:18.778Z,47.73
2017-04-11T10:19:19.308Z,46.95
2017-04-11T10:20:19.840Z,47.61
2017-04-11T10:21:20.376Z,47.31
2017-04-11T10:22:20.916Z,47.13
2017-04-11T10:23:21.430Z,49.09
2017-04-11T10:24:21.972Z,46.02
2017-04-11T10:25:22.498Z,48.74
2017-04-11T10:26:23.023Z,50.22
2017-04-11T10:27:23.552Z,48.01
2017-04-11T10:28:24.080Z,46.52
2017-04-11T10:29:24.613Z,47.15
2017-04-11T10:30:25.147Z,46.85
2017-04-11T10:31:25.681Z,47.15
2017-04-11T10:32:26.222Z,46.02
2017-04-11T10:33:26.754Z,46.65
2017-04-11T10:34:27.285Z,47.08
2017-04-11T10:35:27.821Z,47.78
2017-04-11T10:36:28.349Z,47.93
2017-04-11T10:37:28.882Z,47.18
2017-04-11T10:38:29.418Z,47.63
2017-04-11T10:39:29.940Z,45.48
2017-04-11T10:40:30.471Z,45.25
2017-04-11T10:41:31.002Z,46.90
2017-04-11T10:42:31.529Z,47.83
2017-04-11T10:43:32.060Z,46.78
2017-04-11T10:44:32.593Z,45.80
2017-04-11T10:45:33.123Z,46.85
2017-04-11T10:46:33.657Z,46.15
2017-04-11T10:47:34.331Z,47.23
2017-04-11T10:48:34.715Z,45.90
2017-04-11T10:49:35.247Z,45.68
2017-04-11T10:50:35.779Z,44.55
2017-04-11T10:51:36.321Z,44.82
2017-04-11T10:52:36.994Z,44.80
2017-04-11T10:53:37.375Z,44.87
2017-04-11T10:54:37.908Z,45.25
2017-04-11T10:55:38.443Z,44.52
2017-04-11T10:56:38.968Z,45.40
2017-04-11T10:57:39.506Z,44.35
2017-04-11T10:58:40.034Z,45.15
2017-04-11T10:59:40.569Z,46.38
2017-04-11T11:00:41.098Z,45.25
2017-04-11T11:01:41.629Z,45.60
2017-04-11T11:02:42.169Z,45.43
2017-04-11T11:03:42.693Z,45.27
2017-04-11T11:04:43.220Z,44.77
2017-04-11T11:05:43.755Z,43.72
2017-04-11T11:06:44.283Z,44.25
2017-04-11T11:07:44.813Z,46.00
2017-04-11T11:08:45.339Z,45.35
2017-04-11T11:09:45.877Z,42.83
2017-04-11T11:10:46.406Z,42.33
2017-04-11T11:11:46.938Z,42.18
2017-04-11T11:12:47.468Z,42.03
2017-04-11T11:13:48.013Z,42.67
2017-04-11T11:14:48.574Z,43.85
2017-04-11T11:15:49.075Z,45.02
2017-04-11T11:16:49.755Z,44.97
2017-04-11T11:17:50.138Z,44.87
2017-04-11T11:18:50.685Z,45.48
2017-04-11T11:19:51.199Z,46.20
2017-04-11T11:20:51.730Z,46.07
2017-04-11T11:21:52.267Z,46.73
2017-04-11T11:22:52.790Z,48.14
2017-04-11T11:23:53.320Z,46.83
2017-04-11T11:24:53.859Z,48.48
2017-04-11T11:25:54.382Z,46.58
2017-04-11T11:26:54.948Z,46.68
2017-04-11T11:27:55.452Z,47.40
2017-04-11T11:28:55.969Z,46.48
2017-04-11T11:29:56.509Z,46.12
2017-04-11T11:30:57.038Z,45.40
2017-04-11T11:31:57.564Z,45.52
2017-04-11T11:32:58.109Z,46.43
2017-04-11T11:33:58.629Z,47.65
2017-04-11T11:34:59.164Z,46.07
2017-04-11T11:35:59.688Z,46.00
2017-04-11T11:37:00.365Z,44.80
2017-04-11T11:38:00.745Z,44.20
2017-04-11T11:39:01.278Z,46.58
2017-04-11T11:40:01.833Z,43.20
2017-04-11T11:41:02.331Z,44.30
2017-04-11T11:42:02.869Z,43.57
2017-04-11T11:43:03.399Z,43.45
2017-04-11T11:44:03.930Z,44.10
2017-04-11T11:45:04.613Z,44.68
2017-04-11T11:46:04.998Z,44.72
2017-04-11T11:47:05.521Z,44.17
2017-04-11T11:48:06.054Z,44.68
2017-04-11T11:49:06.581Z,46.88
2017-04-11T11:50:07.112Z,44.77
2017-04-11T11:51:07.645Z,44.43
2017-04-11T11:52:08.181Z,44.87
2017-04-11T11:53:08.713Z,47.73
2017-04-11T11:54:09.250Z,43.72
2017-04-11T11:55:09.786Z,43.17
2017-04-11T11:56:10.319Z,41.93
2017-04-11T11:57:10.853Z,43.50
2017-04-11T11:58:11.389Z,44.12
2017-04-11T11:59:12.062Z,46.02
2017-04-11T12:00:12.447Z,42.83
2017-04-11T12:01:12.977Z,44.10
2017-04-11T12:02:13.512Z,41.80
2017-04-11T12:03:14.042Z,43.33
2017-04-11T12:04:14.568Z,42.08
2017-04-11T12:05:15.098Z,42.60
2017-04-11T12:06:15.630Z,42.20
2017-04-11T12:07:16.156Z,43.95
2017-04-11T12:08:16.687Z,43.38
2017-04-11T12:09:17.218Z,46.30
2017-04-11T12:10:17.747Z,45.05
2017-04-11T12:11:18.277Z,45.62
2017-04-11T12:12:18.812Z,45.07
2017-04-11T12:13:19.351Z,45.50
2017-04-11T12:14:19.873Z,46.88
2017-04-11T12:15:20.409Z,46.12
2017-04-11T12:16:21.118Z,44.90
2017-04-11T12:17:21.466Z,44.90
2017-04-11T12:18:21.996Z,46.18
2017-04-11T12:19:22.676Z,44.30
2017-04-11T12:20:23.056Z,43.80
2017-04-11T12:21:23.588Z,45.43
2017-04-11T12:22:24.117Z,45.27
2017-04-11T12:23:24.646Z,46.35
2017-04-11T12:24:25.177Z,46.78
2017-04-11T12:25:25.718Z,46.12
2017-04-11T12:26:26.242Z,46.10
2017-04-11T12:27:26.770Z,46.50
2017-04-11T12:28:27.300Z,46.98
2017-04-11T12:29:27.829Z,46.18
2017-04-11T12:30:28.360Z,46.55
2017-04-11T12:31:29.041Z,45.68
2017-04-11T12:32:29.431Z,45.90
2017-04-11T12:33:29.960Z,46.52
2017-04-11T12:34:30.488Z,45.18
2017-04-11T12:35:31.174Z,45.45
2017-04-11T12:36:31.707Z,46.70
2017-04-11T12:37:32.089Z,46.38
2017-04-11T12:38:32.623Z,46.20
2017-04-11T12:39:33.153Z,46.10
2017-04-11T12:40:33.686Z,45.02
2017-04-11T12:41:34.216Z,45.45
2017-04-11T12:42:34.752Z,45.85
2017-04-11T12:43:35.285Z,46.05
2017-04-11T12:44:35.815Z,46.02
2017-04-11T12:45:36.357Z,47.00
2017-04-11T12:46:36.876Z,45.82
2017-04-11T12:47:37.558Z,45.32
2017-04-11T12:48:37.951Z,46.83
2017-04-11T12:49:38.472Z,45.50
2017-04-11T12:50:39.005Z,44.07
2017-04-11T12:51:39.534Z,43.95
2017-04-11T12:52:40.067Z,44.30
2017-04-11T12:53:40.599Z,43.55
2017-04-11T12:54:41.127Z,43.15
2017-04-11T12:55:41.659Z,44.87
2017-04-11T12:56:42.190Z,44.93
2017-04-11T12:57:42.756Z,44.60
2017-04-11T12:58:43.252Z,45.27
2017-04-11T12:59:43.793Z,44.37
2017-04-11T13:00:44.357Z,44.30
2017-04-11T13:01:44.851Z,42.30
2017-04-11T13:02:45.379Z,42.30
2017-04-11T13:03:45.913Z,40.83
2017-04-11T13:04:46.444Z,41.58
2017-04-11T13:05:46.967Z,43.88